createdAt,value
2018-10-16T00:01:01.798Z,10.90
2018-10-16T00:03:30.415Z,10.90
2018-10-16T00:05:59.034Z,10.80
2018-10-16T00:08:27.673Z,10.80
2018-10-16T00:10:56.327Z,10.80
2018-10-16T00:13:24.953Z,10.80
2018-10-16T00:15:53.547Z,10.70
2018-10-16T00:18:22.168Z,10.70
2018-10-16T00:20:50.793Z,10.70
2018-10-16T00:23:19.428Z,10.70
2018-10-16T00:25:48.057Z,10.70
2018-10-16T00:28:16.676Z,10.60
2018-10-16T00:30:45.281Z,10.60
2018-10-16T00:33:13.968Z,10.60
2018-10-16T00:35:42.569Z,10.60
2018-10-16T00:38:11.204Z,10.60
2018-10-16T00:40:39.854Z,10.60
2018-10-16T00:43:08.478Z,10.60
2018-10-16T00:45:37.105Z,10.60
2018-10-16T00:48:05.840Z,10.60
2018-10-16T00:50:34.457Z,10.60
2018-10-16T00:53:03.112Z,10.60
2018-10-16T00:55:31.740Z,10.50
2018-10-16T00:58:00.345Z,10.50
2018-10-16T01:00:28.957Z,10.50
2018-10-16T01:02:57.558Z,10.50
2018-10-16T01:05:26.185Z,10.50
2018-10-16T01:07:54.788Z,10.40
2018-10-16T01:10:23.414Z,10.40
2018-10-16T01:12:52.044Z,10.40
2018-10-16T01:15:20.637Z,10.40
2018-10-16T01:17:49.244Z,10.40
2018-10-16T01:20:17.877Z,10.30
2018-10-16T01:22:46.510Z,10.30
2018-10-16T01:25:15.101Z,10.30
2018-10-16T01:27:43.721Z,10.30
2018-10-16T01:30:12.345Z,10.30
2018-10-16T01:32:40.953Z,10.20
2018-10-16T01:35:11.068Z,10.20
2018-10-16T01:37:39.677Z,10.20
2018-10-16T01:40:09.438Z,10.20
2018-10-16T01:42:38.225Z,10.20
2018-10-16T01:45:07.229Z,10.10
2018-10-16T01:47:35.949Z,10.10
2018-10-16T01:50:04.658Z,10.10
2018-10-16T01:52:33.261Z,10.10
2018-10-16T01:55:01.905Z,10.10
2018-10-16T01:57:30.504Z,10.00
2018-10-16T01:59:59.144Z,10.00
2018-10-16T02:02:27.810Z,10.00
2018-10-16T02:04:56.417Z,10.00
2018-10-16T02:07:25.013Z,9.90
2018-10-16T02:09:53.629Z,9.90
2018-10-16T02:12:22.257Z,9.90
2018-10-16T02:14:50.994Z,9.90
2018-10-16T02:17:19.561Z,9.90
2018-10-16T02:19:48.189Z,9.90
2018-10-16T02:22:16.778Z,9.90
2018-10-16T02:24:45.410Z,9.80
2018-10-16T02:27:14.053Z,9.80
2018-10-16T02:29:42.673Z,9.80
2018-10-16T02:32:11.291Z,9.80
2018-10-16T02:34:40.037Z,9.80
2018-10-16T02:37:09.326Z,9.80
2018-10-16T02:39:37.990Z,9.80
2018-10-16T02:42:06.804Z,9.70
2018-10-16T02:44:35.412Z,9.70
2018-10-16T02:47:04.177Z,9.70
2018-10-16T02:49:32.801Z,9.70
2018-10-16T02:52:01.420Z,9.60
2018-10-16T02:54:30.065Z,9.50
2018-10-16T02:56:58.689Z,9.60
2018-10-16T02:59:27.292Z,9.50
2018-10-16T03:01:55.909Z,9.50
2018-10-16T03:04:24.508Z,9.50
2018-10-16T03:06:53.124Z,9.50
2018-10-16T03:09:21.732Z,9.50
2018-10-16T03:11:50.368Z,9.50
2018-10-16T03:14:18.977Z,9.50
2018-10-16T03:16:47.576Z,9.50
2018-10-16T03:19:16.171Z,9.50
2018-10-16T03:21:44.749Z,9.40
2018-10-16T03:24:13.384Z,9.40
2018-10-16T03:26:42.029Z,9.40
2018-10-16T03:29:11.033Z,9.40
2018-10-16T03:31:40.088Z,9.40
2018-10-16T03:34:09.148Z,9.30
2018-10-16T03:36:38.796Z,9.30
2018-10-16T03:39:09.140Z,9.30
2018-10-16T03:41:38.069Z,9.30
2018-10-16T03:44:12.281Z,9.30
2018-10-16T03:46:40.997Z,9.30
2018-10-16T03:49:10.468Z,9.30
2018-10-16T03:51:39.648Z,9.30
2018-10-16T03:54:08.702Z,9.30
2018-10-16T03:56:37.349Z,9.30
2018-10-16T03:59:06.045Z,9.30
2018-10-16T04:01:34.687Z,9.30
2018-10-16T04:04:03.308Z,9.30
2018-10-16T04:06:31.949Z,9.30
2018-10-16T04:09:00.566Z,9.30
2018-10-16T04:11:29.238Z,9.30
2018-10-16T04:13:57.902Z,9.30
2018-10-16T04:16:26.518Z,9.20
2018-10-16T04:18:55.153Z,9.20
2018-10-16T04:21:23.745Z,9.20
2018-10-16T04:23:52.369Z,9.20
2018-10-16T04:26:20.979Z,9.20
2018-10-16T04:28:49.588Z,9.20
2018-10-16T04:31:18.201Z,9.20
2018-10-16T04:33:46.833Z,9.20
2018-10-16T04:36:15.436Z,9.20
2018-10-16T04:38:44.053Z,9.10
2018-10-16T04:41:12.644Z,9.20
2018-10-16T04:43:41.256Z,9.20
2018-10-16T04:46:09.869Z,9.20
2018-10-16T04:48:38.497Z,9.10
2018-10-16T04:51:07.096Z,9.10
2018-10-16T04:53:35.725Z,9.10
2018-10-16T04:56:04.472Z,9.10
2018-10-16T04:58:33.085Z,9.10
2018-10-16T05:01:01.697Z,9.00
2018-10-16T05:03:30.312Z,9.00
2018-10-16T05:05:58.946Z,9.00
2018-10-16T05:08:27.578Z,9.00
2018-10-16T05:10:56.203Z,9.00
2018-10-16T05:13:24.817Z,9.00
2018-10-16T05:15:53.437Z,9.00
2018-10-16T05:18:22.053Z,8.90
2018-10-16T05:20:50.680Z,9.00
2018-10-16T05:23:19.297Z,8.90
2018-10-16T05:25:47.935Z,8.90
2018-10-16T05:28:16.549Z,8.90
2018-10-16T05:30:45.169Z,8.90
2018-10-16T05:33:13.779Z,8.90
2018-10-16T05:35:42.405Z,8.90
2018-10-16T05:38:11.012Z,8.90
2018-10-16T05:40:39.628Z,8.90
2018-10-16T05:43:08.268Z,8.90
2018-10-16T05:45:40.261Z,8.80
2018-10-16T05:48:08.865Z,8.80
2018-10-16T05:50:37.473Z,8.70
2018-10-16T05:53:06.117Z,8.70
2018-10-16T05:55:34.758Z,8.70
2018-10-16T05:58:03.360Z,8.80
2018-10-16T06:00:39.781Z,8.80
2018-10-16T06:03:08.449Z,8.90
2018-10-16T06:05:37.133Z,8.90
2018-10-16T06:08:06.141Z,9.00
2018-10-16T06:10:35.046Z,9.00
2018-10-16T06:13:03.681Z,9.10
2018-10-16T06:15:32.330Z,9.10
2018-10-16T06:18:00.932Z,9.20
2018-10-16T06:20:29.585Z,9.20
2018-10-16T06:22:58.212Z,9.30
2018-10-16T06:25:26.840Z,9.30
2018-10-16T06:27:55.505Z,9.40
2018-10-16T06:30:24.242Z,9.40
2018-10-16T06:32:52.820Z,9.50
2018-10-16T06:35:21.453Z,9.50
2018-10-16T06:37:50.085Z,9.60
2018-10-16T06:40:18.716Z,9.60
2018-10-16T06:42:47.345Z,9.70
2018-10-16T06:45:16.002Z,9.70
2018-10-16T06:47:44.625Z,9.80
2018-10-16T06:50:13.256Z,9.80
2018-10-16T06:52:41.882Z,9.90
2018-10-16T06:55:10.674Z,10.00
2018-10-16T06:57:39.208Z,10.00
2018-10-16T07:00:08.247Z,10.10
2018-10-16T07:02:36.866Z,10.20
2018-10-16T07:05:06.486Z,10.30
2018-10-16T07:07:35.313Z,10.40
2018-10-16T07:10:04.062Z,10.50
2018-10-16T07:12:32.700Z,10.50
2018-10-16T07:15:01.459Z,10.60
2018-10-16T07:17:29.957Z,10.70
2018-10-16T07:19:58.661Z,10.80
2018-10-16T07:22:27.297Z,10.90
2018-10-16T07:24:55.908Z,11.00
2018-10-16T07:27:24.548Z,11.10
2018-10-16T07:29:53.215Z,11.20
2018-10-16T07:32:21.842Z,11.30
2018-10-16T07:34:50.465Z,11.30
2018-10-16T07:37:19.097Z,11.40
2018-10-16T07:39:47.705Z,11.50
2018-10-16T07:42:16.334Z,11.50
2018-10-16T07:44:44.994Z,11.60
2018-10-16T07:47:13.661Z,11.70
2018-10-16T07:49:42.323Z,11.80
2018-10-16T07:52:10.968Z,11.90
2018-10-16T07:54:39.644Z,12.00
2018-10-16T07:57:08.371Z,12.10
2018-10-16T07:59:36.990Z,12.10
2018-10-16T08:02:05.723Z,12.20
2018-10-16T08:04:34.325Z,12.30
2018-10-16T08:07:02.949Z,12.40
2018-10-16T08:09:31.576Z,12.50
2018-10-16T08:12:00.225Z,12.60
2018-10-16T08:14:28.817Z,12.80
2018-10-16T08:16:57.483Z,12.90
2018-10-16T08:19:26.093Z,12.90
2018-10-16T08:21:54.728Z,13.10
2018-10-16T08:24:23.381Z,13.20
2018-10-16T08:26:52.027Z,13.20
2018-10-16T08:29:20.642Z,13.30
2018-10-16T08:31:49.241Z,13.40
2018-10-16T08:34:17.962Z,13.50
2018-10-16T08:36:46.566Z,13.50
2018-10-16T08:39:24.333Z,13.60
2018-10-16T08:44:06.805Z,13.70
2018-10-16T08:46:46.625Z,13.80
2018-10-16T08:49:26.314Z,13.90
2018-10-16T08:51:56.417Z,14.10
2018-10-16T08:54:25.136Z,14.20
2018-10-16T08:56:53.758Z,14.30
2018-10-16T08:59:22.377Z,14.40
2018-10-16T09:01:51.008Z,14.50
2018-10-16T09:04:19.692Z,14.60
2018-10-16T09:06:48.427Z,14.70
2018-10-16T09:09:18.085Z,14.70
2018-10-16T09:11:47.997Z,14.90
2018-10-16T09:14:17.160Z,15.00
2018-10-16T09:16:45.718Z,15.00
2018-10-16T09:19:14.337Z,15.20
2018-10-16T09:21:42.982Z,15.30
2018-10-16T09:24:11.597Z,15.30
2018-10-16T09:26:40.197Z,15.40
2018-10-16T09:29:08.818Z,15.50
2018-10-16T09:31:37.449Z,15.60
2018-10-16T09:34:06.098Z,15.60
2018-10-16T09:36:34.722Z,15.80
2018-10-16T09:39:03.393Z,15.80
2018-10-16T09:41:32.017Z,16.00
2018-10-16T09:44:00.637Z,16.00
2018-10-16T09:46:29.229Z,16.10
2018-10-16T09:48:57.992Z,16.20
2018-10-16T09:51:26.601Z,16.30
2018-10-16T09:53:55.240Z,16.40
2018-10-16T09:56:23.865Z,16.50
2018-10-16T09:58:52.473Z,16.50
2018-10-16T10:01:26.408Z,16.60
2018-10-16T10:03:55.025Z,16.70
2018-10-16T10:06:23.660Z,16.80
2018-10-16T10:08:52.293Z,16.90
2018-10-16T10:11:20.882Z,17.00
2018-10-16T10:13:49.599Z,17.10
2018-10-16T10:16:18.217Z,17.20
2018-10-16T10:18:46.884Z,17.30
2018-10-16T10:21:15.601Z,17.40
2018-10-16T10:23:44.240Z,17.40
2018-10-16T10:26:13.034Z,17.50
2018-10-16T10:28:41.757Z,17.60
2018-10-16T10:31:10.376Z,17.70
2018-10-16T10:33:39.174Z,17.80
2018-10-16T10:36:07.813Z,17.90
2018-10-16T10:38:36.424Z,17.90
2018-10-16T10:41:05.185Z,18.00
2018-10-16T10:43:33.782Z,18.10
2018-10-16T10:46:02.499Z,18.30
2018-10-16T10:48:31.207Z,18.40
2018-10-16T10:51:00.119Z,18.50
2018-10-16T10:53:28.674Z,18.50
2018-10-16T10:55:57.339Z,18.60
2018-10-16T10:58:26.207Z,18.60
2018-10-16T11:00:54.914Z,18.70
2018-10-16T11:03:23.756Z,18.70
2018-10-16T11:05:52.249Z,18.80
2018-10-16T11:08:20.868Z,18.90
2018-10-16T11:10:49.521Z,19.00
2018-10-16T11:13:18.159Z,19.10
2018-10-16T11:15:46.804Z,19.10
2018-10-16T11:18:15.454Z,19.20
2018-10-16T11:20:44.045Z,19.20
2018-10-16T11:23:12.858Z,19.30
2018-10-16T11:25:41.497Z,19.40
2018-10-16T11:28:10.108Z,19.40
2018-10-16T11:30:38.717Z,19.50
2018-10-16T11:33:07.389Z,19.50
2018-10-16T11:35:35.941Z,19.60
2018-10-16T11:38:04.651Z,19.70
2018-10-16T11:40:33.250Z,19.70
2018-10-16T11:43:01.894Z,19.70
2018-10-16T11:45:30.649Z,19.70
2018-10-16T11:47:59.354Z,19.80
2018-10-16T11:50:28.057Z,19.80
2018-10-16T11:52:56.903Z,19.90
2018-10-16T11:55:25.605Z,19.90
2018-10-16T11:57:54.352Z,19.90
2018-10-16T12:00:25.053Z,20.00
2018-10-16T12:02:54.391Z,20.00
2018-10-16T12:05:23.097Z,20.10
2018-10-16T12:07:51.791Z,20.20
2018-10-16T12:10:20.394Z,20.30
2018-10-16T12:12:48.981Z,20.30
2018-10-16T12:15:17.622Z,20.30
2018-10-16T12:19:56.455Z,20.40
2018-10-16T12:22:25.028Z,20.40
2018-10-16T12:24:53.777Z,20.40
2018-10-16T12:27:22.392Z,20.40
2018-10-16T12:29:51.004Z,20.50
2018-10-16T12:32:19.659Z,20.60
2018-10-16T12:34:48.252Z,20.80
2018-10-16T12:37:16.852Z,21.30
2018-10-16T12:39:45.536Z,21.60
2018-10-16T12:42:14.202Z,21.60
2018-10-16T12:44:42.774Z,21.50
2018-10-16T12:47:11.461Z,21.40
2018-10-16T12:49:40.037Z,21.30
2018-10-16T12:52:08.649Z,21.20
2018-10-16T12:54:37.266Z,21.10
2018-10-16T12:57:05.939Z,21.00
2018-10-16T12:59:34.520Z,21.00
2018-10-16T13:02:03.225Z,21.00
2018-10-16T13:04:31.793Z,21.00
2018-10-16T13:07:07.525Z,21.00
2018-10-16T13:09:36.259Z,21.00
2018-10-16T13:12:04.954Z,21.00
2018-10-16T13:14:33.565Z,21.00
2018-10-16T13:17:02.229Z,21.00
2018-10-16T13:19:30.806Z,21.00
2018-10-16T13:21:59.425Z,21.00
2018-10-16T13:24:27.998Z,20.90
2018-10-16T13:26:56.604Z,20.90
2018-10-16T13:29:25.407Z,20.90
2018-10-16T13:31:53.869Z,20.90
2018-10-16T13:34:22.469Z,20.90
2018-10-16T13:36:51.126Z,20.90
2018-10-16T13:39:19.677Z,21.00
2018-10-16T13:41:48.299Z,20.90
2018-10-16T13:44:16.873Z,21.00
2018-10-16T13:46:45.483Z,20.90
2018-10-16T13:49:14.953Z,20.90
2018-10-16T13:51:43.565Z,20.90
2018-10-16T13:54:12.178Z,21.00
2018-10-16T13:56:40.834Z,20.90
2018-10-16T13:59:09.423Z,20.90
2018-10-16T14:01:38.031Z,20.90
2018-10-16T14:04:06.702Z,20.90
2018-10-16T14:06:35.272Z,20.90
2018-10-16T14:09:04.829Z,20.80
2018-10-16T14:11:33.430Z,20.80
2018-10-16T14:14:02.068Z,20.80
2018-10-16T14:16:30.849Z,20.90
2018-10-16T14:18:59.455Z,20.90
2018-10-16T14:21:28.192Z,20.80
2018-10-16T14:23:57.026Z,20.80
2018-10-16T14:26:25.714Z,20.80
2018-10-16T14:28:54.296Z,20.70
2018-10-16T14:31:22.922Z,20.70
2018-10-16T14:33:51.634Z,20.70
2018-10-16T14:36:20.210Z,20.70
2018-10-16T14:38:48.804Z,20.70
2018-10-16T14:41:17.410Z,20.60
2018-10-16T14:43:46.022Z,20.60
2018-10-16T14:46:14.811Z,20.60
2018-10-16T14:48:43.293Z,20.60
2018-10-16T14:51:11.909Z,20.60
2018-10-16T14:53:40.496Z,20.50
2018-10-16T14:56:09.187Z,20.50
2018-10-16T14:58:37.725Z,20.40
2018-10-16T15:01:06.408Z,20.40
2018-10-16T15:03:35.026Z,20.40
2018-10-16T15:06:03.813Z,20.30
2018-10-16T15:08:32.421Z,20.30
2018-10-16T15:11:01.045Z,20.20
2018-10-16T15:13:29.893Z,20.20
2018-10-16T15:15:58.506Z,20.10
2018-10-16T15:18:27.119Z,20.10
2018-10-16T15:20:55.713Z,20.00
2018-10-16T15:23:24.323Z,20.00
2018-10-16T15:25:52.973Z,20.00
2018-10-16T15:28:21.602Z,19.90
2018-10-16T15:30:50.217Z,19.90
2018-10-16T15:33:18.812Z,19.80
2018-10-16T15:35:47.497Z,19.80
2018-10-16T15:38:16.045Z,19.70
2018-10-16T15:40:44.676Z,19.60
2018-10-16T15:43:13.317Z,19.60
2018-10-16T15:45:41.951Z,19.50
2018-10-16T15:48:10.583Z,19.50
2018-10-16T15:50:39.223Z,19.40
2018-10-16T15:53:07.792Z,19.40
2018-10-16T15:55:36.405Z,19.30
2018-10-16T15:58:05.701Z,19.20
2018-10-16T16:00:34.321Z,19.20
2018-10-16T16:03:03.020Z,19.10
2018-10-16T16:05:31.651Z,19.00
2018-10-16T16:08:00.345Z,18.90
2018-10-16T16:10:28.896Z,18.80
2018-10-16T16:12:57.513Z,18.70
2018-10-16T16:15:26.149Z,18.60
2018-10-16T16:17:54.859Z,18.40
2018-10-16T16:20:23.425Z,18.30
2018-10-16T16:22:52.033Z,18.20
2018-10-16T16:25:20.643Z,18.10
2018-10-16T16:27:49.270Z,17.90
2018-10-16T16:30:17.892Z,17.80
2018-10-16T16:32:46.574Z,17.60
2018-10-16T16:35:15.268Z,17.50
2018-10-16T16:37:43.949Z,17.50
2018-10-16T16:40:13.874Z,17.30
2018-10-16T16:42:42.521Z,17.20
2018-10-16T16:45:11.669Z,17.10
2018-10-16T16:47:40.337Z,17.00
2018-10-16T16:50:10.501Z,17.00
2018-10-16T16:52:39.285Z,16.90
2018-10-16T16:55:09.288Z,16.80
2018-10-16T16:57:37.907Z,16.70
2018-10-16T17:00:09.521Z,16.60
2018-10-16T17:02:38.551Z,16.50
2018-10-16T17:05:07.664Z,16.50
2018-10-16T17:07:36.494Z,16.40
2018-10-16T17:10:05.448Z,16.30
2018-10-16T17:12:34.048Z,16.30
2018-10-16T17:15:02.690Z,16.20
2018-10-16T17:17:31.324Z,16.10
2018-10-16T17:19:59.976Z,16.10
2018-10-16T17:22:28.582Z,16.00
2018-10-16T17:24:57.311Z,16.00
2018-10-16T17:27:25.892Z,15.90
2018-10-16T17:29:54.672Z,15.80
2018-10-16T17:32:23.278Z,15.70
2018-10-16T17:34:51.890Z,15.60
2018-10-16T17:37:20.491Z,15.60
2018-10-16T17:39:49.105Z,15.50
2018-10-16T17:42:17.705Z,15.50
2018-10-16T17:44:46.340Z,15.50
2018-10-16T17:47:14.991Z,15.40
2018-10-16T17:49:43.610Z,15.30
2018-10-16T17:52:12.270Z,15.30
2018-10-16T17:54:40.886Z,15.30
2018-10-16T17:57:09.577Z,15.20
2018-10-16T17:59:38.144Z,15.20
2018-10-16T18:02:06.818Z,15.10
2018-10-16T18:04:35.464Z,15.00
2018-10-16T18:07:04.081Z,15.00
2018-10-16T18:09:32.765Z,14.90
2018-10-16T18:12:01.401Z,14.90
2018-10-16T18:14:30.043Z,14.80
2018-10-16T18:16:59.484Z,14.80
2018-10-16T18:19:28.889Z,14.70
2018-10-16T18:21:58.447Z,14.70
2018-10-16T18:24:27.906Z,14.60
2018-10-16T18:26:56.638Z,14.60
2018-10-16T18:29:25.221Z,14.50
2018-10-16T18:31:53.849Z,14.50
2018-10-16T18:34:22.468Z,14.50
2018-10-16T18:36:51.070Z,14.40
2018-10-16T18:39:19.696Z,14.40
2018-10-16T18:41:48.276Z,14.40
2018-10-16T18:44:16.872Z,14.30
2018-10-16T18:46:45.817Z,14.30
2018-10-16T18:49:14.432Z,14.30
2018-10-16T18:51:43.069Z,14.20
2018-10-16T18:54:11.754Z,14.20
2018-10-16T18:56:40.354Z,14.10
2018-10-16T18:59:08.977Z,14.10
2018-10-16T19:01:37.573Z,14.10
2018-10-16T19:04:06.782Z,14.00
2018-10-16T19:06:35.441Z,14.00
2018-10-16T19:09:05.976Z,13.90
2018-10-16T19:11:34.556Z,13.90
2018-10-16T19:14:03.289Z,13.90
2018-10-16T19:16:31.836Z,13.90
2018-10-16T19:19:00.452Z,13.80
2018-10-16T19:21:29.062Z,13.80
2018-10-16T19:23:57.720Z,13.70
2018-10-16T19:26:26.343Z,13.70
2018-10-16T19:28:54.965Z,13.70
2018-10-16T19:31:23.578Z,13.70
2018-10-16T19:33:52.259Z,13.60
2018-10-16T19:36:21.253Z,13.60
2018-10-16T19:38:49.861Z,13.60
2018-10-16T19:41:18.503Z,13.50
2018-10-16T19:43:47.182Z,13.50
2018-10-16T19:46:15.845Z,13.50
2018-10-16T19:48:44.440Z,13.40
2018-10-16T19:51:13.100Z,13.40
2018-10-16T19:53:41.684Z,13.30
2018-10-16T19:56:10.305Z,13.30
2018-10-16T19:58:38.917Z,13.30
2018-10-16T20:01:08.332Z,13.20
2018-10-16T20:03:37.687Z,13.20
2018-10-16T20:06:07.087Z,13.20
2018-10-16T20:08:35.748Z,13.10
2018-10-16T20:11:04.513Z,13.10
2018-10-16T20:13:33.120Z,13.10
2018-10-16T20:16:01.736Z,13.00
2018-10-16T20:18:30.351Z,13.00
2018-10-16T20:20:59.024Z,12.90
2018-10-16T20:23:27.630Z,12.90
2018-10-16T20:25:56.229Z,12.90
2018-10-16T20:28:24.880Z,12.80
2018-10-16T20:30:53.698Z,12.80
2018-10-16T20:33:22.493Z,12.80
2018-10-16T20:35:51.128Z,12.70
2018-10-16T20:38:19.816Z,12.70
2018-10-16T20:40:48.519Z,12.70
2018-10-16T20:43:17.300Z,12.60
2018-10-16T20:45:52.572Z,12.60
2018-10-16T20:48:21.642Z,12.60
2018-10-16T20:50:50.381Z,12.60
2018-10-16T20:53:19.134Z,12.50
2018-10-16T20:55:47.912Z,12.50
2018-10-16T20:58:16.525Z,12.50
2018-10-16T21:00:45.558Z,12.50
2018-10-16T21:03:14.211Z,12.50
2018-10-16T21:05:43.028Z,12.40
2018-10-16T21:08:11.665Z,12.40
2018-10-16T21:10:40.434Z,12.30
2018-10-16T21:13:09.130Z,12.30
2018-10-16T21:15:37.787Z,12.30
2018-10-16T21:18:06.446Z,12.30
2018-10-16T21:20:35.109Z,12.20
2018-10-16T21:23:03.798Z,12.20
2018-10-16T21:25:32.405Z,12.20
2018-10-16T21:28:01.089Z,12.20
2018-10-16T21:30:29.686Z,12.10
2018-10-16T21:32:58.274Z,12.10
2018-10-16T21:35:26.901Z,12.10
2018-10-16T21:37:55.584Z,12.00
2018-10-16T21:40:24.310Z,12.00
2018-10-16T21:42:52.993Z,12.00
2018-10-16T21:45:21.606Z,12.00
2018-10-16T21:47:50.271Z,11.90
2018-10-16T21:50:19.002Z,11.90
2018-10-16T21:52:47.682Z,11.90
2018-10-16T21:55:16.584Z,11.80
2018-10-16T21:57:45.379Z,11.80
2018-10-16T22:00:19.570Z,11.80
2018-10-16T22:02:49.470Z,11.80
2018-10-16T22:05:22.897Z,11.70
2018-10-16T22:07:53.554Z,11.70
2018-10-16T22:10:22.799Z,11.60
2018-10-16T22:12:51.671Z,11.60
2018-10-16T22:15:21.253Z,11.50
2018-10-16T22:17:50.342Z,11.50
2018-10-16T22:20:19.105Z,11.50
2018-10-16T22:22:47.994Z,11.40
2018-10-16T22:25:16.848Z,11.40
2018-10-16T22:27:45.473Z,11.40
2018-10-16T22:30:14.093Z,11.40
2018-10-16T22:32:42.729Z,11.30
2018-10-16T22:35:11.943Z,11.30
2018-10-16T22:37:40.533Z,11.30
2018-10-16T22:40:09.885Z,11.30
2018-10-16T22:42:38.541Z,11.20
2018-10-16T22:45:07.930Z,11.30
2018-10-16T22:47:36.541Z,11.30
2018-10-16T22:50:08.505Z,11.20
2018-10-16T22:52:37.113Z,11.20
2018-10-16T22:55:06.360Z,11.20
2018-10-16T22:57:34.940Z,11.20
2018-10-16T23:00:03.590Z,11.10
2018-10-16T23:02:32.175Z,11.20
2018-10-16T23:05:00.793Z,11.10
2018-10-16T23:07:29.444Z,11.10
2018-10-16T23:09:58.037Z,11.10
2018-10-16T23:12:26.631Z,11.10
2018-10-16T23:14:55.224Z,11.00
2018-10-16T23:17:23.869Z,11.00
2018-10-16T23:19:52.470Z,11.00
2018-10-16T23:22:21.073Z,11.00
2018-10-16T23:24:49.673Z,11.00
2018-10-16T23:27:18.294Z,11.00
2018-10-16T23:29:46.908Z,10.90
2018-10-16T23:32:15.513Z,10.90
2018-10-16T23:34:44.143Z,10.90
2018-10-16T23:37:12.829Z,10.90
2018-10-16T23:39:41.348Z,10.90
2018-10-16T23:42:09.949Z,10.90
2018-10-16T23:44:38.617Z,10.80
2018-10-16T23:47:13.632Z,10.80
2018-10-16T23:49:42.226Z,10.80
2018-10-16T23:52:10.822Z,10.80
2018-10-16T23:54:39.437Z,10.80
2018-10-16T23:57:08.053Z,10.70
2018-10-16T23:59:36.682Z,10.70
